Iver Agile — IBHW — position and weather

sailwx.info

Track history (hours):
 
Tides and Currents Weather Stations Pressure Air Temp Water Temp Dewpoint Dewpoint Depression Visibility Wind Speed Wind Dir Waves Ship Positions

Iver Agile

Last reported at 2015-Jul-27 23:26 UTC. Time now 2015-Jul-28 01:28 UTC.
Position N 36°45' E 023°30'.

Length 110 m; draft 4.6 m.

Type: Tanker. MMSI: 247103700.

Date/timePositionNaut miles runAvg speedWind from/ knotsBaromVisibWave heightAir tempDewpointWater temp
2015-Jul-27 23:26N 36°45' E 023°30'1011.6
2015-Jul-27 22:33N 36°53' E 023°36'1211.6
2015-Jul-27 21:33N 37°05' E 023°40'1111.3
2015-Jul-27 20:33N 37°16' E 023°43'1110.7
2015-Jul-27 19:33N 37°26' E 023°45'1111.1
2015-Jul-27 18:33N 37°37' E 023°43'1111.2
2015-Jul-27 17:33N 37°47' E 023°37'9 8.5
2015-Jul-27 16:33N 37°55' E 023°33'0 0.0
2015-Jul-27 15:33N 37°55' E 023°33'0 0.0
2015-Jul-27 14:33N 37°55' E 023°33'0 0.0
2015-Jul-27 13:33N 37°55' E 023°33'0 0.1
2015-Jul-27 12:33N 37°55' E 023°33'0 0.1
2015-Jul-27 11:33N 37°55' E 023°33'0 0.0
2015-Jul-27 10:33N 37°55' E 023°33'0 0.0
2015-Jul-27 09:33N 37°55' E 023°33'0 0.0
2015-Jul-27 08:33N 37°55' E 023°33'0 0.0
2015-Jul-27 07:33N 37°55' E 023°33'1 0.8
2015-Jul-27 06:33N 37°55' E 023°34'9 8.7
2015-Jul-27 05:33N 37°48' E 023°41'1111.3
2015-Jul-27 04:33N 37°39' E 023°49'1010.1
2015-Jul-27 03:33N 37°36' E 024°02'13 9.6
2015-Jul-27 02:10N 37°44' E 024°15'810.5
2015-Jul-27 01:23N 37°49' E 024°24'1010.0
2015-Jul-27 00:21N 37°55' E 024°34'  
2015-Jul-23 04:33N 40°56' E 028°59'9 8.6
2015-Jul-23 03:27N 40°49' E 028°49'2 2.1
2015-Jul-23 02:29N 40°48' E 028°48'1 0.9
2015-Jul-23 01:31N 40°47' E 028°49'1 0.9
2015-Jul-23 00:31N 40°47' E 028°50'3 2.6
2015-Jul-22 23:32N 40°48' E 028°47'270 8.4
2015-Jul-21 15:16N 37°49' E 024°26'2011.4
2015-Jul-21 13:33N 37°34' E 024°10'4410.7
2015-Jul-21 09:26N 36°56' E 023°41'37510.8
2015-Jul-19 22:33N 37°07' E 015°51'1211.9
2015-Jul-19 21:33N 37°09' E 015°37'1312.1
2015-Jul-19 20:30N 37°11' E 015°21'7 1.2
2015-Jul-19 14:33N 37°12' E 015°12'  
Track history (hours):
 
Tides and Currents Weather Stations Pressure Air Temp Water Temp Dewpoint Dewpoint Depression Visibility Wind Speed Wind Dir Waves Ship Positions

Iver Agile

Last reported at 2015-Jul-27 23:26 UTC. Time now 2015-Jul-28 01:28 UTC.
Position N 36°45' E 023°30'.

Length 110 m; draft 4.6 m.

Type: Tanker. MMSI: 247103700.

Date/timePositionNaut miles runAvg speedWind from/ knotsBaromVisibWave heightAir tempDewpointWater temp
2015-Jul-27 23:26N 36°45' E 023°30'1011.6
2015-Jul-27 22:33N 36°53' E 023°36'1211.6
2015-Jul-27 21:33N 37°05' E 023°40'1111.3
2015-Jul-27 20:33N 37°16' E 023°43'1110.7
2015-Jul-27 19:33N 37°26' E 023°45'1111.1
2015-Jul-27 18:33N 37°37' E 023°43'1111.2
2015-Jul-27 17:33N 37°47' E 023°37'9 8.5
2015-Jul-27 16:33N 37°55' E 023°33'0 0.0
2015-Jul-27 15:33N 37°55' E 023°33'0 0.0
2015-Jul-27 14:33N 37°55' E 023°33'0 0.0
2015-Jul-27 13:33N 37°55' E 023°33'0 0.1
2015-Jul-27 12:33N 37°55' E 023°33'0 0.1
2015-Jul-27 11:33N 37°55' E 023°33'0 0.0
2015-Jul-27 10:33N 37°55' E 023°33'0 0.0
2015-Jul-27 09:33N 37°55' E 023°33'0 0.0
2015-Jul-27 08:33N 37°55' E 023°33'0 0.0
2015-Jul-27 07:33N 37°55' E 023°33'1 0.8
2015-Jul-27 06:33N 37°55' E 023°34'9 8.7
2015-Jul-27 05:33N 37°48' E 023°41'1111.3
2015-Jul-27 04:33N 37°39' E 023°49'1010.1
2015-Jul-27 03:33N 37°36' E 024°02'13 9.6
2015-Jul-27 02:10N 37°44' E 024°15'810.5
2015-Jul-27 01:23N 37°49' E 024°24'1010.0
2015-Jul-27 00:21N 37°55' E 024°34'  
2015-Jul-23 04:33N 40°56' E 028°59'9 8.6
2015-Jul-23 03:27N 40°49' E 028°49'2 2.1
2015-Jul-23 02:29N 40°48' E 028°48'1 0.9
2015-Jul-23 01:31N 40°47' E 028°49'1 0.9
2015-Jul-23 00:31N 40°47' E 028°50'3 2.6
2015-Jul-22 23:32N 40°48' E 028°47'270 8.4
2015-Jul-21 15:16N 37°49' E 024°26'2011.4
2015-Jul-21 13:33N 37°34' E 024°10'4410.7
2015-Jul-21 09:26N 36°56' E 023°41'37510.8
2015-Jul-19 22:33N 37°07' E 015°51'1211.9
2015-Jul-19 21:33N 37°09' E 015°37'1312.1
2015-Jul-19 20:30N 37°11' E 015°21'7 1.2
2015-Jul-19 14:33N 37°12' E 015°12'  

Dump ship's entire track history